sensor_id;sensor_type;location;lat;lon;timestamp;pressure;altitude;pressure_sealevel;temperature;humidity
56807;BME280;42687;42.524;12.052;2022-11-20T00:01:45;95744.53;;;5.87;100.00
56807;BME280;42687;42.524;12.052;2022-11-20T00:04:11;95754.97;;;5.87;100.00
56807;BME280;42687;42.524;12.052;2022-11-20T00:06:37;95760.19;;;5.87;100.00
56807;BME280;42687;42.524;12.052;2022-11-20T00:09:03;95766.28;;;5.88;100.00
56807;BME280;42687;42.524;12.052;2022-11-20T00:11:30;95761.88;;;5.88;100.00
56807;BME280;42687;42.524;12.052;2022-11-20T00:13:59;95767.94;;;5.89;100.00
56807;BME280;42687;42.524;12.052;2022-11-20T00:16:26;95764.50;;;5.88;100.00
56807;BME280;42687;42.524;12.052;2022-11-20T00:18:52;95761.88;;;5.88;100.00
56807;BME280;42687;42.524;12.052;2022-11-20T00:21:19;95762.66;;;5.90;100.00
56807;BME280;42687;42.524;12.052;2022-11-20T00:23:45;95758.25;;;5.91;100.00
56807;BME280;42687;42.524;12.052;2022-11-20T00:26:12;95768.69;;;5.91;100.00
56807;BME280;42687;42.524;12.052;2022-11-20T00:28:38;95768.69;;;5.91;100.00
56807;BME280;42687;42.524;12.052;2022-11-20T00:31:08;95776.53;;;5.91;100.00
56807;BME280;42687;42.524;12.052;2022-11-20T00:33:34;95781.66;;;5.92;100.00
56807;BME280;42687;42.524;12.052;2022-11-20T00:36:09;95786.88;;;5.92;100.00
56807;BME280;42687;42.524;12.052;2022-11-20T00:38:36;95770.38;;;5.92;100.00
56807;BME280;42687;42.524;12.052;2022-11-20T00:41:03;95785.09;;;5.93;100.00
56807;BME280;42687;42.524;12.052;2022-11-20T00:43:29;95775.44;;;5.95;100.00
56807;BME280;42687;42.524;12.052;2022-11-20T00:46:11;95771.13;;;5.94;100.00
56807;BME280;42687;42.524;12.052;2022-11-20T00:48:37;95769.38;;;5.94;100.00
56807;BME280;42687;42.524;12.052;2022-11-20T00:51:03;95764.16;;;5.94;100.00
56807;BME280;42687;42.524;12.052;2022-11-20T00:53:28;95763.28;;;5.94;100.00
56807;BME280;42687;42.524;12.052;2022-11-20T00:58:23;95786.78;;;5.94;100.00
56807;BME280;42687;42.524;12.052;2022-11-20T01:00:48;95772.00;;;5.94;100.00
56807;BME280;42687;42.524;12.052;2022-11-20T01:03:15;95779.81;;;5.94;100.00
56807;BME280;42687;42.524;12.052;2022-11-20T01:05:41;95788.56;;;5.93;100.00
56807;BME280;42687;42.524;12.052;2022-11-20T01:08:07;95799.75;;;5.95;100.00
56807;BME280;42687;42.524;12.052;2022-11-20T01:10:32;95792.88;;;5.94;100.00
56807;BME280;42687;42.524;12.052;2022-11-20T01:12:58;95798.00;;;5.96;100.00
56807;BME280;42687;42.524;12.052;2022-11-20T01:15:41;95798.81;;;5.96;100.00
56807;BME280;42687;42.524;12.052;2022-11-20T01:18:07;95803.13;;;5.97;100.00
56807;BME280;42687;42.524;12.052;2022-11-20T01:20:35;95803.97;;;5.98;100.00
56807;BME280;42687;42.524;12.052;2022-11-20T01:23:04;95803.94;;;5.99;100.00
56807;BME280;42687;42.524;12.052;2022-11-20T01:25:30;95807.38;;;6.00;100.00
56807;BME280;42687;42.524;12.052;2022-11-20T01:27:55;95811.56;;;6.03;100.00
56807;BME280;42687;42.524;12.052;2022-11-20T01:30:21;95825.44;;;6.03;100.00
56807;BME280;42687;42.524;12.052;2022-11-20T01:32:46;95816.88;;;6.01;100.00
56807;BME280;42687;42.524;12.052;2022-11-20T01:35:12;95827.31;;;6.01;100.00
56807;BME280;42687;42.524;12.052;2022-11-20T01:37:37;95824.72;;;6.01;100.00
56807;BME280;42687;42.524;12.052;2022-11-20T01:40:03;95829.84;;;6.03;100.00
56807;BME280;42687;42.524;12.052;2022-11-20T01:42:29;95828.06;;;6.03;100.00
56807;BME280;42687;42.524;12.052;2022-11-20T01:47:57;95834.97;;;6.04;100.00
56807;BME280;42687;42.524;12.052;2022-11-20T01:50:24;95822.84;;;6.03;100.00
56807;BME280;42687;42.524;12.052;2022-11-20T01:55:19;95827.16;;;6.04;100.00
56807;BME280;42687;42.524;12.052;2022-11-20T01:57:47;95822.75;;;6.05;100.00
56807;BME280;42687;42.524;12.052;2022-11-20T02:00:14;95820.09;;;6.06;100.00
56807;BME280;42687;42.524;12.052;2022-11-20T02:02:44;95825.22;;;6.08;100.00
56807;BME280;42687;42.524;12.052;2022-11-20T02:07:43;95821.59;;;6.10;100.00
56807;BME280;42687;42.524;12.052;2022-11-20T02:10:08;95823.34;;;6.10;100.00
56807;BME280;42687;42.524;12.052;2022-11-20T02:12:34;95828.47;;;6.11;100.00
56807;BME280;42687;42.524;12.052;2022-11-20T02:15:18;95818.13;;;6.10;100.00
56807;BME280;42687;42.524;12.052;2022-11-20T02:17:43;95827.75;;;6.09;100.00
56807;BME280;42687;42.524;12.052;2022-11-20T02:20:09;95825.88;;;6.11;100.00
56807;BME280;42687;42.524;12.052;2022-11-20T02:22:37;95822.34;;;6.12;100.00
56807;BME280;42687;42.524;12.052;2022-11-20T02:25:04;95829.16;;;6.15;100.00
56807;BME280;42687;42.524;12.052;2022-11-20T02:27:30;95829.16;;;6.15;100.00
56807;BME280;42687;42.524;12.052;2022-11-20T02:29:57;95826.53;;;6.15;100.00
56807;BME280;42687;42.524;12.052;2022-11-20T02:34:51;95812.66;;;6.14;100.00
56807;BME280;42687;42.524;12.052;2022-11-20T02:37:16;95808.28;;;6.15;100.00
56807;BME280;42687;42.524;12.052;2022-11-20T02:39:43;95806.53;;;6.15;100.00
56807;BME280;42687;42.524;12.052;2022-11-20T02:42:09;95808.19;;;6.16;100.00
56807;BME280;42687;42.524;12.052;2022-11-20T02:44:35;95810.16;;;6.13;100.00
56807;BME280;42687;42.524;12.052;2022-11-20T02:47:00;95805.56;;;6.16;100.00
56807;BME280;42687;42.524;12.052;2022-11-20T02:49:26;95793.28;;;6.18;100.00
56807;BME280;42687;42.524;12.052;2022-11-20T02:51:52;95806.34;;;6.18;100.00
56807;BME280;42687;42.524;12.052;2022-11-20T02:54:17;95806.34;;;6.18;100.00
56807;BME280;42687;42.524;12.052;2022-11-20T02:56:43;95807.25;;;6.17;100.00
56807;BME280;42687;42.524;12.052;2022-11-20T02:59:08;95806.34;;;6.18;100.00
56807;BME280;42687;42.524;12.052;2022-11-20T03:01:34;95802.81;;;6.20;100.00
56807;BME280;42687;42.524;12.052;2022-11-20T03:03:59;95808.03;;;6.20;100.00
56807;BME280;42687;42.524;12.052;2022-11-20T03:06:25;95803.72;;;6.18;100.00
56807;BME280;42687;42.524;12.052;2022-11-20T03:08:50;95808.13;;;6.18;100.00
56807;BME280;42687;42.524;12.052;2022-11-20T03:11:16;95809.13;;;6.15;100.00
56807;BME280;42687;42.524;12.052;2022-11-20T03:13:42;95791.69;;;6.16;100.00
56807;BME280;42687;42.524;12.052;2022-11-20T03:16:08;95798.84;;;6.12;100.00
56807;BME280;42687;42.524;12.052;2022-11-20T03:18:34;95794.63;;;6.10;100.00
56807;BME280;42687;42.524;12.052;2022-11-20T03:21:00;95795.59;;;6.09;100.00
56807;BME280;42687;42.524;12.052;2022-11-20T03:23:25;95794.13;;;6.03;100.00
56807;BME280;42687;42.524;12.052;2022-11-20T03:25:51;95799.53;;;6.00;100.00
56807;BME280;42687;42.524;12.052;2022-11-20T03:28:16;95796.31;;;5.95;100.00
56807;BME280;42687;42.524;12.052;2022-11-20T03:30:42;95800.84;;;5.91;100.00
56807;BME280;42687;42.524;12.052;2022-11-20T03:33:07;95800.25;;;5.86;100.00
56807;BME280;42687;42.524;12.052;2022-11-20T03:35:33;95792.59;;;5.83;100.00
56807;BME280;42687;42.524;12.052;2022-11-20T03:37:58;95791.84;;;5.81;100.00
56807;BME280;42687;42.524;12.052;2022-11-20T03:40:24;95791.78;;;5.82;100.00
56807;BME280;42687;42.524;12.052;2022-11-20T03:42:49;95797.81;;;5.83;100.00
56807;BME280;42687;42.524;12.052;2022-11-20T03:45:15;95797.81;;;5.83;100.00
56807;BME280;42687;42.524;12.052;2022-11-20T03:47:41;95804.47;;;5.89;100.00
56807;BME280;42687;42.524;12.052;2022-11-20T03:50:07;95813.75;;;5.94;100.00
56807;BME280;42687;42.524;12.052;2022-11-20T03:52:33;95829.94;;;6.01;100.00
56807;BME280;42687;42.524;12.052;2022-11-20T03:54:59;95813.25;;;6.04;100.00
56807;BME280;42687;42.524;12.052;2022-11-20T03:57:24;95810.47;;;6.07;100.00
56807;BME280;42687;42.524;12.052;2022-11-20T03:59:50;95818.22;;;6.08;100.00
56807;BME280;42687;42.524;12.052;2022-11-20T04:02:15;95818.03;;;6.11;100.00
56807;BME280;42687;42.524;12.052;2022-11-20T04:04:41;95809.19;;;6.14;100.00
56807;BME280;42687;42.524;12.052;2022-11-20T04:07:06;95812.66;;;6.14;100.00
56807;BME280;42687;42.524;12.052;2022-11-20T04:09:32;95814.50;;;6.12;100.00
56807;BME280;42687;42.524;12.052;2022-11-20T04:11:57;95813.75;;;6.10;100.00
56807;BME280;42687;42.524;12.052;2022-11-20T04:14:23;95819.22;;;6.06;100.00
56807;BME280;42687;42.524;12.052;2022-11-20T04:16:48;95812.78;;;5.95;100.00
56807;BME280;42687;42.524;12.052;2022-11-20T04:19:15;95804.91;;;5.81;100.00
56807;BME280;42687;42.524;12.052;2022-11-20T04:21:41;95805.63;;;5.67;100.00
56807;BME280;42687;42.524;12.052;2022-11-20T04:24:06;95802.00;;;5.54;100.00
56807;BME280;42687;42.524;12.052;2022-11-20T04:26:32;95806.78;;;5.45;100.00
56807;BME280;42687;42.524;12.052;2022-11-20T04:28:58;95810.72;;;5.37;100.00
56807;BME280;42687;42.524;12.052;2022-11-20T04:31:28;95803.28;;;5.29;100.00
56807;BME280;42687;42.524;12.052;2022-11-20T04:33:54;95811.47;;;5.23;100.00
56807;BME280;42687;42.524;12.052;2022-11-20T04:36:23;95811.59;;;5.20;100.00
56807;BME280;42687;42.524;12.052;2022-11-20T04:38:52;95806.63;;;5.15;100.00
56807;BME280;42687;42.524;12.052;2022-11-20T04:41:19;95806.63;;;5.15;100.00
56807;BME280;42687;42.524;12.052;2022-11-20T04:43:48;95812.84;;;5.12;100.00
56807;BME280;42687;42.524;12.052;2022-11-20T04:46:14;95814.00;;;5.07;100.00
56807;BME280;42687;42.524;12.052;2022-11-20T04:48:40;95814.16;;;5.04;100.00
56807;BME280;42687;42.524;12.052;2022-11-20T04:51:06;95820.28;;;5.03;100.00
56807;BME280;42687;42.524;12.052;2022-11-20T04:53:31;95830.78;;;5.01;100.00
56807;BME280;42687;42.524;12.052;2022-11-20T04:56:00;95819.63;;;4.99;100.00
56807;BME280;42687;42.524;12.052;2022-11-20T04:58:26;95831.03;;;4.96;100.00
56807;BME280;42687;42.524;12.052;2022-11-20T05:00:52;95837.94;;;4.97;100.00
56807;BME280;42687;42.524;12.052;2022-11-20T05:03:17;95843.19;;;4.96;100.00
56807;BME280;42687;42.524;12.052;2022-11-20T05:05:43;95853.63;;;4.96;100.00
56807;BME280;42687;42.524;12.052;2022-11-20T05:08:08;95854.63;;;4.93;100.00
56807;BME280;42687;42.524;12.052;2022-11-20T05:10:34;95851.19;;;4.93;100.00
56807;BME280;42687;42.524;12.052;2022-11-20T05:12:59;95859.78;;;4.95;100.00
56807;BME280;42687;42.524;12.052;2022-11-20T05:15:25;95848.56;;;4.93;100.00
56807;BME280;42687;42.524;12.052;2022-11-20T05:17:51;95860.84;;;4.91;100.00
56807;BME280;42687;42.524;12.052;2022-11-20T05:20:17;95847.97;;;4.88;100.00
56807;BME280;42687;42.524;12.052;2022-11-20T05:22:43;95871.41;;;4.88;100.00
56807;BME280;42687;42.524;12.052;2022-11-20T05:25:08;95858.53;;;4.84;100.00
56807;BME280;42687;42.524;12.052;2022-11-20T05:27:34;95871.03;;;4.78;100.00
56807;BME280;42687;42.524;12.052;2022-11-20T05:30:00;95873.19;;;4.70;100.00
56807;BME280;42687;42.524;12.052;2022-11-20T05:32:25;95883.81;;;4.65;100.00
56807;BME280;42687;42.524;12.052;2022-11-20T05:34:51;95885.03;;;4.58;100.00
56807;BME280;42687;42.524;12.052;2022-11-20T05:37:17;95889.81;;;4.48;100.00
56807;BME280;42687;42.524;12.052;2022-11-20T05:39:42;95886.81;;;4.38;100.00
56807;BME280;42687;42.524;12.052;2022-11-20T05:42:08;95880.16;;;4.32;100.00
56807;BME280;42687;42.524;12.052;2022-11-20T05:44:52;95891.56;;;4.30;100.00
56807;BME280;42687;42.524;12.052;2022-11-20T05:47:17;95889.88;;;4.29;100.00
56807;BME280;42687;42.524;12.052;2022-11-20T05:49:43;95901.88;;;4.31;100.00
56807;BME280;42687;42.524;12.052;2022-11-20T05:52:08;95901.75;;;4.34;100.00
56807;BME280;42687;42.524;12.052;2022-11-20T05:54:34;95899.84;;;4.38;100.00
56807;BME280;42687;42.524;12.052;2022-11-20T05:56:59;95897.88;;;4.43;100.00
56807;BME280;42687;42.524;12.052;2022-11-20T05:59:25;95893.28;;;4.48;100.00
56807;BME280;42687;42.524;12.052;2022-11-20T06:01:50;95894.75;;;4.54;100.00
56807;BME280;42687;42.524;12.052;2022-11-20T06:04:16;95890.16;;;4.59;100.00
56807;BME280;42687;42.524;12.052;2022-11-20T06:06:41;95906.34;;;4.66;100.00
56807;BME280;42687;42.524;12.052;2022-11-20T06:09:07;95901.13;;;4.66;100.00
56807;BME280;42687;42.524;12.052;2022-11-20T06:11:32;95902.94;;;4.64;100.00
56807;BME280;42687;42.524;12.052;2022-11-20T06:13:57;95843.72;;;4.32;100.00
56807;BME280;42687;42.524;12.052;2022-11-20T06:16:23;95900.22;;;4.67;100.00
56807;BME280;42687;42.524;12.052;2022-11-20T06:18:49;95904.44;;;4.70;100.00
56807;BME280;42687;42.524;12.052;2022-11-20T06:21:18;95893.94;;;4.71;100.00
56807;BME280;42687;42.524;12.052;2022-11-20T06:23:44;95891.25;;;4.73;100.00
56807;BME280;42687;42.524;12.052;2022-11-20T06:26:11;95890.19;;;4.77;100.00
56807;BME280;42687;42.524;12.052;2022-11-20T06:28:37;95894.22;;;4.82;100.00
56807;BME280;42687;42.524;12.052;2022-11-20T06:31:02;95906.13;;;4.88;100.00
56807;BME280;42687;42.524;12.052;2022-11-20T06:33:28;95906.06;;;4.90;100.00
56807;BME280;42687;42.524;12.052;2022-11-20T06:35:57;95905.91;;;4.93;100.00
56807;BME280;42687;42.524;12.052;2022-11-20T06:38:23;95912.88;;;4.92;100.00
56807;BME280;42687;42.524;12.052;2022-11-20T06:40:49;95911.94;;;4.93;100.00
56807;BME280;42687;42.524;12.052;2022-11-20T06:43:14;95908.28;;;4.97;100.00
56807;BME280;42687;42.524;12.052;2022-11-20T06:45:40;95909.91;;;5.00;100.00
56807;BME280;42687;42.524;12.052;2022-11-20T06:48:05;95923.59;;;5.04;100.00
56807;BME280;42687;42.524;12.052;2022-11-20T06:50:30;95915.66;;;5.07;100.00
56807;BME280;42687;42.524;12.052;2022-11-20T06:52:56;95922.16;;;5.15;100.00
56807;BME280;42687;42.524;12.052;2022-11-20T06:55:21;95926.19;;;5.21;100.00
56807;BME280;42687;42.524;12.052;2022-11-20T06:57:47;95925.00;;;5.28;100.00
56807;BME280;42687;42.524;12.052;2022-11-20T07:00:13;95923.00;;;5.33;100.00
56807;BME280;42687;42.524;12.052;2022-11-20T07:02:38;95921.66;;;5.42;100.00
56807;BME280;42687;42.524;12.052;2022-11-20T07:05:04;95922.06;;;5.52;100.00
56807;BME280;42687;42.524;12.052;2022-11-20T07:07:29;95917.97;;;5.64;100.00
56807;BME280;42687;42.524;12.052;2022-11-20T07:09:55;95912.28;;;5.73;100.00
56807;BME280;42687;42.524;12.052;2022-11-20T07:12:20;95921.13;;;5.87;100.00
56807;BME280;42687;42.524;12.052;2022-11-20T07:14:46;95923.06;;;6.16;100.00
56807;BME280;42687;42.524;12.052;2022-11-20T07:17:11;95926.44;;;6.50;100.00
56807;BME280;42687;42.524;12.052;2022-11-20T07:19:37;95930.59;;;7.01;100.00
56807;BME280;42687;42.524;12.052;2022-11-20T07:22:02;95929.41;;;7.51;100.00
56807;BME280;42687;42.524;12.052;2022-11-20T07:24:27;95930.38;;;7.94;100.00
56807;BME280;42687;42.524;12.052;2022-11-20T07:26:53;95941.78;;;8.36;100.00
56807;BME280;42687;42.524;12.052;2022-11-20T07:29:18;95924.72;;;8.58;100.00
56807;BME280;42687;42.524;12.052;2022-11-20T07:31:44;95948.03;;;8.90;100.00
56807;BME280;42687;42.524;12.052;2022-11-20T07:34:09;95948.25;;;9.14;100.00
56807;BME280;42687;42.524;12.052;2022-11-20T07:36:35;95953.31;;;9.43;100.00
56807;BME280;42687;42.524;12.052;2022-11-20T07:39:00;95956.50;;;9.61;100.00
56807;BME280;42687;42.524;12.052;2022-11-20T07:41:26;95963.38;;;9.76;100.00
56807;BME280;42687;42.524;12.052;2022-11-20T07:43:52;95962.72;;;9.98;100.00
56807;BME280;42687;42.524;12.052;2022-11-20T07:46:18;95973.66;;;10.31;100.00
56807;BME280;42687;42.524;12.052;2022-11-20T07:48:43;95977.13;;;10.44;100.00
56807;BME280;42687;42.524;12.052;2022-11-20T07:51:09;95984.59;;;10.50;100.00
56807;BME280;42687;42.524;12.052;2022-11-20T07:53:34;95985.81;;;10.71;100.00
56807;BME280;42687;42.524;12.052;2022-11-20T07:56:00;95984.50;;;10.89;100.00
56807;BME280;42687;42.524;12.052;2022-11-20T07:58:26;95990.38;;;11.17;100.00
56807;BME280;42687;42.524;12.052;2022-11-20T08:00:51;95988.22;;;10.98;100.00
56807;BME280;42687;42.524;12.052;2022-11-20T08:03:17;96002.25;;;10.98;100.00
56807;BME280;42687;42.524;12.052;2022-11-20T08:05:42;96003.97;;;11.11;100.00
56807;BME280;42687;42.524;12.052;2022-11-20T08:08:08;96018.31;;;11.31;100.00
56807;BME280;42687;42.524;12.052;2022-11-20T08:10:33;96013.84;;;11.44;100.00
56807;BME280;42687;42.524;12.052;2022-11-20T08:12:59;96010.19;;;11.58;100.00
56807;BME280;42687;42.524;12.052;2022-11-20T08:15:47;96011.56;;;11.75;100.00
56807;BME280;42687;42.524;12.052;2022-11-20T08:18:12;96013.63;;;11.83;100.00
56807;BME280;42687;42.524;12.052;2022-11-20T08:20:38;96023.28;;;11.95;100.00
56807;BME280;42687;42.524;12.052;2022-11-20T08:23:05;96016.59;;;12.14;100.00
56807;BME280;42687;42.524;12.052;2022-11-20T08:25:31;96021.28;;;12.22;100.00
56807;BME280;42687;42.524;12.052;2022-11-20T08:27:57;96023.94;;;12.22;100.00
56807;BME280;42687;42.524;12.052;2022-11-20T08:30:23;96016.97;;;12.32;100.00
56807;BME280;42687;42.524;12.052;2022-11-20T08:32:48;96017.84;;;12.32;100.00
56807;BME280;42687;42.524;12.052;2022-11-20T08:35:14;96024.78;;;12.33;100.00
56807;BME280;42687;42.524;12.052;2022-11-20T08:37:39;96019.63;;;12.43;100.00
56807;BME280;42687;42.524;12.052;2022-11-20T08:40:09;96023.38;;;12.52;100.00
56807;BME280;42687;42.524;12.052;2022-11-20T08:42:35;96029.00;;;12.59;100.00
56807;BME280;42687;42.524;12.052;2022-11-20T08:45:01;96032.94;;;12.76;100.00
56807;BME280;42687;42.524;12.052;2022-11-20T08:47:26;96033.53;;;12.79;100.00
56807;BME280;42687;42.524;12.052;2022-11-20T08:49:52;96032.00;;;12.65;100.00
56807;BME280;42687;42.524;12.052;2022-11-20T08:52:17;96039.88;;;12.54;100.00
56807;BME280;42687;42.524;12.052;2022-11-20T08:54:43;96035.47;;;12.55;100.00
56807;BME280;42687;42.524;12.052;2022-11-20T08:57:08;96054.03;;;12.53;100.00
56807;BME280;42687;42.524;12.052;2022-11-20T08:59:34;96054.53;;;12.58;100.00
56807;BME280;42687;42.524;12.052;2022-11-20T09:01:59;96049.88;;;12.73;100.00
56807;BME280;42687;42.524;12.052;2022-11-20T09:04:25;96057.03;;;12.94;100.00
56807;BME280;42687;42.524;12.052;2022-11-20T09:06:50;96046.91;;;13.22;100.00
56807;BME280;42687;42.524;12.052;2022-11-20T09:09:16;96048.34;;;13.26;100.00
56807;BME280;42687;42.524;12.052;2022-11-20T09:11:43;96045.63;;;13.16;100.00
56807;BME280;42687;42.524;12.052;2022-11-20T09:14:09;96051.03;;;13.03;100.00
56807;BME280;42687;42.524;12.052;2022-11-20T09:16:34;96062.19;;;12.95;98.94
56807;BME280;42687;42.524;12.052;2022-11-20T09:18:59;96050.31;;;12.78;100.00
56807;BME280;42687;42.524;12.052;2022-11-20T09:21:25;96044.94;;;12.80;100.00
56807;BME280;42687;42.524;12.052;2022-11-20T09:23:50;96047.81;;;12.88;100.00
56807;BME280;42687;42.524;12.052;2022-11-20T09:26:16;96049.03;;;12.84;100.00
56807;BME280;42687;42.524;12.052;2022-11-20T09:28:41;96038.22;;;12.76;100.00
56807;BME280;42687;42.524;12.052;2022-11-20T09:31:07;96033.91;;;12.52;88.83
56807;BME280;42687;42.524;12.052;2022-11-20T09:33:33;96010.41;;;12.38;100.00
56807;BME280;42687;42.524;12.052;2022-11-20T09:35:59;96033.91;;;12.41;91.14
56807;BME280;42687;42.524;12.052;2022-11-20T09:38:25;96033.16;;;12.39;100.00
56807;BME280;42687;42.524;12.052;2022-11-20T09:41:38;96032.69;;;12.33;100.00
56807;BME280;42687;42.524;12.052;2022-11-20T09:46:17;96022.28;;;12.55;97.10
56807;BME280;42687;42.524;12.052;2022-11-20T09:51:23;96026.84;;;12.64;96.87
56807;BME280;42687;42.524;12.052;2022-11-20T09:56:58;96035.09;;;12.93;100.00
56807;BME280;42687;42.524;12.052;2022-11-20T10:02:02;96048.41;;;13.03;99.05
56807;BME280;42687;42.524;12.052;2022-11-20T10:04:31;96050.81;;;12.95;96.25
56807;BME280;42687;42.524;12.052;2022-11-20T10:07:03;96047.44;;;12.93;97.90
56807;BME280;42687;42.524;12.052;2022-11-20T10:09:37;96041.44;;;13.02;99.17
56807;BME280;42687;42.524;12.052;2022-11-20T10:29:33;96036.22;;;13.34;96.47
56807;BME280;42687;42.524;12.052;2022-11-20T10:32:04;96027.34;;;13.35;91.87
56807;BME280;42687;42.524;12.052;2022-11-20T10:34:56;96020.88;;;13.40;92.59
56807;BME280;42687;42.524;12.052;2022-11-20T10:37:22;96036.44;;;13.54;93.61
56807;BME280;42687;42.524;12.052;2022-11-20T10:39:54;96028.88;;;13.49;76.36
56807;BME280;42687;42.524;12.052;2022-11-20T10:45:09;96035.50;;;13.76;92.09
56807;BME280;42687;42.524;12.052;2022-11-20T10:47:38;96019.59;;;14.09;82.03
56807;BME280;42687;42.524;12.052;2022-11-20T10:50:04;96022.16;;;14.20;86.36
56807;BME280;42687;42.524;12.052;2022-11-20T11:00:24;96019.84;;;14.27;85.67
56807;BME280;42687;42.524;12.052;2022-11-20T11:02:51;96020.75;;;13.95;90.58
56807;BME280;42687;42.524;12.052;2022-11-20T11:07:42;96017.66;;;13.13;92.63
56807;BME280;42687;42.524;12.052;2022-11-20T11:10:14;96019.88;;;12.63;87.54
56807;BME280;42687;42.524;12.052;2022-11-20T11:12:42;96026.91;;;12.06;94.05
56807;BME280;42687;42.524;12.052;2022-11-20T11:15:42;96034.72;;;11.59;100.00
56807;BME280;42687;42.524;12.052;2022-11-20T11:18:00;96032.03;;;11.23;99.81
56807;BME280;42687;42.524;12.052;2022-11-20T11:20:25;96011.25;;;10.70;98.39
56807;BME280;42687;42.524;12.052;2022-11-20T11:22:52;96036.94;;;10.54;100.00
56807;BME280;42687;42.524;12.052;2022-11-20T11:25:28;95998.88;;;10.08;100.00
56807;BME280;42687;42.524;12.052;2022-11-20T11:27:55;96031.38;;;10.07;100.00
56807;BME280;42687;42.524;12.052;2022-11-20T11:30:22;96037.03;;;10.00;100.00
56807;BME280;42687;42.524;12.052;2022-11-20T11:32:47;96041.75;;;9.95;100.00
56807;BME280;42687;42.524;12.052;2022-11-20T11:37:45;96042.69;;;9.81;98.58
56807;BME280;42687;42.524;12.052;2022-11-20T11:40:12;96043.56;;;9.67;99.92
56807;BME280;42687;42.524;12.052;2022-11-20T11:42:42;96043.53;;;9.55;97.06
56807;BME280;42687;42.524;12.052;2022-11-20T11:45:11;96052.00;;;9.45;95.59
56807;BME280;42687;42.524;12.052;2022-11-20T11:52:41;96061.06;;;9.54;97.09
56807;BME280;42687;42.524;12.052;2022-11-20T11:55:09;96054.03;;;9.55;94.33
56807;BME280;42687;42.524;12.052;2022-11-20T11:57:47;96051.03;;;9.61;96.38
56807;BME280;42687;42.524;12.052;2022-11-20T12:00:19;96053.25;;;9.67;95.76
56807;BME280;42687;42.524;12.052;2022-11-20T12:10:17;96048.00;;;9.67;87.53
56807;BME280;42687;42.524;12.052;2022-11-20T12:12:45;96048.50;;;9.59;91.58
56807;BME280;42687;42.524;12.052;2022-11-20T12:15:16;96048.41;;;9.61;92.17
56807;BME280;42687;42.524;12.052;2022-11-20T12:17:44;96041.66;;;9.57;90.54
56807;BME280;42687;42.524;12.052;2022-11-20T12:20:13;96038.19;;;9.56;91.53
56807;BME280;42687;42.524;12.052;2022-11-20T12:22:50;96035.47;;;9.58;87.93
56807;BME280;42687;42.524;12.052;2022-11-20T12:25:24;96036.03;;;9.63;90.88
56807;BME280;42687;42.524;12.052;2022-11-20T12:28:00;96037.88;;;9.61;89.23
56807;BME280;42687;42.524;12.052;2022-11-20T12:30:32;96031.38;;;9.54;87.20
56807;BME280;42687;42.524;12.052;2022-11-20T12:35:44;96039.88;;;9.57;90.57
56807;BME280;42687;42.524;12.052;2022-11-20T12:38:36;96036.19;;;9.60;89.04
56807;BME280;42687;42.524;12.052;2022-11-20T12:43:32;96038.19;;;9.56;90.35
56807;BME280;42687;42.524;12.052;2022-11-20T12:56:35;96020.16;;;9.64;89.46
56807;BME280;42687;42.524;12.052;2022-11-20T13:06:40;96025.13;;;9.82;86.93
56807;BME280;42687;42.524;12.052;2022-11-20T13:09:08;96024.16;;;9.70;88.21
56807;BME280;42687;42.524;12.052;2022-11-20T13:16:53;96014.47;;;9.58;86.46
56807;BME280;42687;42.524;12.052;2022-11-20T13:19:22;96020.66;;;9.57;83.70
56807;BME280;42687;42.524;12.052;2022-11-20T13:21:49;96027.59;;;9.58;85.29
56807;BME280;42687;42.524;12.052;2022-11-20T13:29:36;96014.16;;;9.62;83.75
56807;BME280;42687;42.524;12.052;2022-11-20T13:32:20;96022.03;;;9.62;86.52
56807;BME280;42687;42.524;12.052;2022-11-20T13:34:56;96015.03;;;9.63;85.33
56807;BME280;42687;42.524;12.052;2022-11-20T13:40:04;96013.44;;;9.60;84.73
56807;BME280;42687;42.524;12.052;2022-11-20T13:42:31;96005.75;;;9.57;82.05
56807;BME280;42687;42.524;12.052;2022-11-20T13:45:07;96006.59;;;9.58;84.17
56807;BME280;42687;42.524;12.052;2022-11-20T13:47:33;96008.38;;;9.57;83.40
56807;BME280;42687;42.524;12.052;2022-11-20T13:50:02;96016.13;;;9.59;84.50
56807;BME280;42687;42.524;12.052;2022-11-20T13:55:21;96011.44;;;9.64;84.70
56807;BME280;42687;42.524;12.052;2022-11-20T14:00:33;96016.22;;;9.84;82.03
56807;BME280;42687;42.524;12.052;2022-11-20T14:05:52;96012.31;;;9.90;85.19
56807;BME280;42687;42.524;12.052;2022-11-20T14:08:23;96017.97;;;9.84;84.06
56807;BME280;42687;42.524;12.052;2022-11-20T14:10:50;96019.34;;;9.77;84.75
56807;BME280;42687;42.524;12.052;2022-11-20T14:13:17;96016.28;;;9.70;83.96
56807;BME280;42687;42.524;12.052;2022-11-20T14:15:43;96007.75;;;9.66;84.62
56807;BME280;42687;42.524;12.052;2022-11-20T14:18:18;96014.25;;;9.61;81.42
56807;BME280;42687;42.524;12.052;2022-11-20T14:20:44;96010.72;;;9.62;82.64
56807;BME280;42687;42.524;12.052;2022-11-20T14:23:10;96006.19;;;9.64;79.73
56807;BME280;42687;42.524;12.052;2022-11-20T14:25:36;95992.66;;;9.70;82.65
56807;BME280;42687;42.524;12.052;2022-11-20T14:28:02;96002.00;;;9.74;82.91
56807;BME280;42687;42.524;12.052;2022-11-20T14:32:55;95959.31;;;9.45;83.73
56807;BME280;42687;42.524;12.052;2022-11-20T14:35:28;96009.06;;;9.74;84.80
56807;BME280;42687;42.524;12.052;2022-11-20T14:37:55;96012.06;;;9.67;78.86
56807;BME280;42687;42.524;12.052;2022-11-20T14:40:31;96018.47;;;9.63;83.56
56807;BME280;42687;42.524;12.052;2022-11-20T14:42:58;96017.28;;;9.55;79.05
56807;BME280;42687;42.524;12.052;2022-11-20T14:45:24;96010.56;;;9.50;83.47
56807;BME280;42687;42.524;12.052;2022-11-20T14:47:51;96027.44;;;9.46;82.80